sensor_id;sensor_type;location;lat;lon;timestamp;temperature;humidity
68026;SHT31;54819;48.030;14.710;2023-08-24T00:01:52;22.02;81.29
68026;SHT31;54819;48.030;14.710;2023-08-24T00:04:19;21.98;81.31
68026;SHT31;54819;48.030;14.710;2023-08-24T00:06:45;21.94;81.25
68026;SHT31;54819;48.030;14.710;2023-08-24T00:09:13;21.90;81.20
68026;SHT31;54819;48.030;14.710;2023-08-24T00:11:41;21.88;81.25
68026;SHT31;54819;48.030;14.710;2023-08-24T00:14:08;21.82;80.77
68026;SHT31;54819;48.030;14.710;2023-08-24T00:16:35;21.66;81.09
68026;SHT31;54819;48.030;14.710;2023-08-24T00:19:02;21.56;81.78
68026;SHT31;54819;48.030;14.710;2023-08-24T00:21:29;21.45;81.86
68026;SHT31;54819;48.030;14.710;2023-08-24T00:23:56;21.37;82.38
68026;SHT31;54819;48.030;14.710;2023-08-24T00:26:22;21.31;82.40
68026;SHT31;54819;48.030;14.710;2023-08-24T00:28:50;21.26;82.89
68026;SHT31;54819;48.030;14.710;2023-08-24T00:31:18;21.25;83.12
68026;SHT31;54819;48.030;14.710;2023-08-24T00:33:47;21.25;83.34
68026;SHT31;54819;48.030;14.710;2023-08-24T00:36:13;21.25;83.51
68026;SHT31;54819;48.030;14.710;2023-08-24T00:38:40;21.25;83.63
68026;SHT31;54819;48.030;14.710;2023-08-24T00:41:07;21.27;83.64
68026;SHT31;54819;48.030;14.710;2023-08-24T00:43:33;21.31;83.56
68026;SHT31;54819;48.030;14.710;2023-08-24T00:46:02;21.33;83.50
68026;SHT31;54819;48.030;14.710;2023-08-24T00:48:31;21.35;83.50
68026;SHT31;54819;48.030;14.710;2023-08-24T00:51:01;21.35;83.48
68026;SHT31;54819;48.030;14.710;2023-08-24T00:53:28;21.36;83.50
68026;SHT31;54819;48.030;14.710;2023-08-24T00:55:56;21.37;83.41
68026;SHT31;54819;48.030;14.710;2023-08-24T00:58:24;21.37;83.34
68026;SHT31;54819;48.030;14.710;2023-08-24T01:00:53;21.37;83.24
68026;SHT31;54819;48.030;14.710;2023-08-24T01:03:22;21.37;83.23
68026;SHT31;54819;48.030;14.710;2023-08-24T01:05:52;21.36;83.29
68026;SHT31;54819;48.030;14.710;2023-08-24T01:08:19;21.35;83.18
68026;SHT31;54819;48.030;14.710;2023-08-24T01:10:58;21.37;83.20
68026;SHT31;54819;48.030;14.710;2023-08-24T01:13:36;21.37;83.22
68026;SHT31;54819;48.030;14.710;2023-08-24T01:16:11;21.37;83.10
68026;SHT31;54819;48.030;14.710;2023-08-24T01:18:43;21.38;83.10
68026;SHT31;54819;48.030;14.710;2023-08-24T01:21:10;21.37;83.03
68026;SHT31;54819;48.030;14.710;2023-08-24T01:24:42;21.36;83.04
68026;SHT31;54819;48.030;14.710;2023-08-24T01:26:48;21.36;83.09
68026;SHT31;54819;48.030;14.710;2023-08-24T01:29:15;21.34;83.13
68026;SHT31;54819;48.030;14.710;2023-08-24T01:31:43;21.33;83.18
68026;SHT31;54819;48.030;14.710;2023-08-24T01:34:10;21.32;83.20
68026;SHT31;54819;48.030;14.710;2023-08-24T01:36:37;21.30;83.20
68026;SHT31;54819;48.030;14.710;2023-08-24T01:42:19;21.22;83.29
68026;SHT31;54819;48.030;14.710;2023-08-24T01:44:49;21.19;83.39
68026;SHT31;54819;48.030;14.710;2023-08-24T01:47:18;21.15;83.43
68026;SHT31;54819;48.030;14.710;2023-08-24T01:49:46;21.11;83.42
68026;SHT31;54819;48.030;14.710;2023-08-24T01:52:13;21.06;83.43
68026;SHT31;54819;48.030;14.710;2023-08-24T01:54:40;21.00;83.49
68026;SHT31;54819;48.030;14.710;2023-08-24T01:57:06;20.97;83.52
68026;SHT31;54819;48.030;14.710;2023-08-24T01:59:33;20.92;83.73
68026;SHT31;54819;48.030;14.710;2023-08-24T02:02:00;20.88;83.79
68026;SHT31;54819;48.030;14.710;2023-08-24T02:04:27;20.83;83.99
68026;SHT31;54819;48.030;14.710;2023-08-24T02:06:54;20.77;84.22
68026;SHT31;54819;48.030;14.710;2023-08-24T02:09:20;20.75;84.43
68026;SHT31;54819;48.030;14.710;2023-08-24T02:11:47;20.72;84.49
68026;SHT31;54819;48.030;14.710;2023-08-24T02:14:13;20.70;84.68
68026;SHT31;54819;48.030;14.710;2023-08-24T02:16:40;20.70;84.77
68026;SHT31;54819;48.030;14.710;2023-08-24T02:19:06;20.69;84.82
68026;SHT31;54819;48.030;14.710;2023-08-24T02:21:35;20.69;84.78
68026;SHT31;54819;48.030;14.710;2023-08-24T02:24:04;20.70;84.81
68026;SHT31;54819;48.030;14.710;2023-08-24T02:26:31;20.70;84.85
68026;SHT31;54819;48.030;14.710;2023-08-24T02:28:59;20.70;84.79
68026;SHT31;54819;48.030;14.710;2023-08-24T02:31:25;20.69;84.72
68026;SHT31;54819;48.030;14.710;2023-08-24T02:33:53;20.69;84.70
68026;SHT31;54819;48.030;14.710;2023-08-24T02:36:20;20.69;84.70
68026;SHT31;54819;48.030;14.710;2023-08-24T02:38:47;20.70;84.71
68026;SHT31;54819;48.030;14.710;2023-08-24T02:41:13;20.69;84.79
68026;SHT31;54819;48.030;14.710;2023-08-24T02:43:40;20.69;84.78
68026;SHT31;54819;48.030;14.710;2023-08-24T02:46:10;20.70;84.70
68026;SHT31;54819;48.030;14.710;2023-08-24T02:48:37;20.70;84.65
68026;SHT31;54819;48.030;14.710;2023-08-24T02:51:04;20.70;84.60
68026;SHT31;54819;48.030;14.710;2023-08-24T02:53:31;20.69;84.71
68026;SHT31;54819;48.030;14.710;2023-08-24T02:55:59;20.68;84.80
68026;SHT31;54819;48.030;14.710;2023-08-24T02:58:26;20.68;84.74
68026;SHT31;54819;48.030;14.710;2023-08-24T03:00:54;20.67;84.72
68026;SHT31;54819;48.030;14.710;2023-08-24T03:03:21;20.66;84.71
68026;SHT31;54819;48.030;14.710;2023-08-24T03:05:54;20.63;84.69
68026;SHT31;54819;48.030;14.710;2023-08-24T03:08:28;20.57;84.68
68026;SHT31;54819;48.030;14.710;2023-08-24T03:10:56;20.52;84.76
68026;SHT31;54819;48.030;14.710;2023-08-24T03:13:23;20.45;84.81
68026;SHT31;54819;48.030;14.710;2023-08-24T03:15:52;20.41;85.05
68026;SHT31;54819;48.030;14.710;2023-08-24T03:18:19;20.40;85.29
68026;SHT31;54819;48.030;14.710;2023-08-24T03:20:46;20.41;85.28
68026;SHT31;54819;48.030;14.710;2023-08-24T03:23:15;20.40;85.30
68026;SHT31;54819;48.030;14.710;2023-08-24T03:25:42;20.38;85.51
68026;SHT31;54819;48.030;14.710;2023-08-24T03:28:09;20.38;85.47
68026;SHT31;54819;48.030;14.710;2023-08-24T03:30:36;20.36;85.59
68026;SHT31;54819;48.030;14.710;2023-08-24T03:33:04;20.37;85.54
68026;SHT31;54819;48.030;14.710;2023-08-24T03:35:32;20.38;85.65
68026;SHT31;54819;48.030;14.710;2023-08-24T03:37:59;20.35;85.78
68026;SHT31;54819;48.030;14.710;2023-08-24T03:40:26;20.34;85.86
68026;SHT31;54819;48.030;14.710;2023-08-24T03:42:53;20.35;85.90
68026;SHT31;54819;48.030;14.710;2023-08-24T03:45:20;20.36;85.90
68026;SHT31;54819;48.030;14.710;2023-08-24T03:47:47;20.35;85.80
68026;SHT31;54819;48.030;14.710;2023-08-24T03:50:15;20.36;85.70
68026;SHT31;54819;48.030;14.710;2023-08-24T03:52:42;20.37;85.72
68026;SHT31;54819;48.030;14.710;2023-08-24T03:55:08;20.37;85.70
68026;SHT31;54819;48.030;14.710;2023-08-24T03:57:36;20.37;85.61
68026;SHT31;54819;48.030;14.710;2023-08-24T04:00:05;20.35;85.60
68026;SHT31;54819;48.030;14.710;2023-08-24T04:02:43;20.34;85.54
68026;SHT31;54819;48.030;14.710;2023-08-24T04:05:14;20.33;85.44
68026;SHT31;54819;48.030;14.710;2023-08-24T04:07:40;20.32;85.40
68026;SHT31;54819;48.030;14.710;2023-08-24T04:10:08;20.31;85.35
68026;SHT31;54819;48.030;14.710;2023-08-24T04:12:35;20.30;85.37
68026;SHT31;54819;48.030;14.710;2023-08-24T04:15:03;20.30;85.36
68026;SHT31;54819;48.030;14.710;2023-08-24T04:17:31;20.29;85.36
68026;SHT31;54819;48.030;14.710;2023-08-24T04:19:58;20.28;85.40
68026;SHT31;54819;48.030;14.710;2023-08-24T04:22:24;20.28;85.45
68026;SHT31;54819;48.030;14.710;2023-08-24T04:24:51;20.27;85.46
68026;SHT31;54819;48.030;14.710;2023-08-24T04:27:17;20.26;85.48
68026;SHT31;54819;48.030;14.710;2023-08-24T04:29:44;20.25;85.70
68026;SHT31;54819;48.030;14.710;2023-08-24T04:32:11;20.26;85.65
68026;SHT31;54819;48.030;14.710;2023-08-24T04:34:37;20.26;85.77
68026;SHT31;54819;48.030;14.710;2023-08-24T04:37:05;20.28;85.86
68026;SHT31;54819;48.030;14.710;2023-08-24T04:39:32;20.36;85.79
68026;SHT31;54819;48.030;14.710;2023-08-24T04:41:58;20.50;85.69
68026;SHT31;54819;48.030;14.710;2023-08-24T04:44:25;20.67;85.50
68026;SHT31;54819;48.030;14.710;2023-08-24T04:46:52;20.84;85.31
68026;SHT31;54819;48.030;14.710;2023-08-24T04:49:18;21.01;85.16
68026;SHT31;54819;48.030;14.710;2023-08-24T04:51:45;21.18;84.98
68026;SHT31;54819;48.030;14.710;2023-08-24T04:54:11;21.41;84.70
68026;SHT31;54819;48.030;14.710;2023-08-24T04:56:38;21.61;84.39
68026;SHT31;54819;48.030;14.710;2023-08-24T04:59:05;21.79;84.03
68026;SHT31;54819;48.030;14.710;2023-08-24T05:01:31;21.95;83.69
68026;SHT31;54819;48.030;14.710;2023-08-24T05:03:58;22.08;83.24
68026;SHT31;54819;48.030;14.710;2023-08-24T05:06:25;22.16;82.98
68026;SHT31;54819;48.030;14.710;2023-08-24T05:08:51;22.22;82.77
68026;SHT31;54819;48.030;14.710;2023-08-24T05:11:19;22.25;82.64
68026;SHT31;54819;48.030;14.710;2023-08-24T05:13:49;22.32;82.45
68026;SHT31;54819;48.030;14.710;2023-08-24T05:16:15;22.37;82.29
68026;SHT31;54819;48.030;14.710;2023-08-24T05:18:42;22.38;82.10
68026;SHT31;54819;48.030;14.710;2023-08-24T05:21:09;22.35;82.09
68026;SHT31;54819;48.030;14.710;2023-08-24T05:23:35;22.31;82.20
68026;SHT31;54819;48.030;14.710;2023-08-24T05:26:02;22.33;82.30
68026;SHT31;54819;48.030;14.710;2023-08-24T05:28:30;22.36;82.24
68026;SHT31;54819;48.030;14.710;2023-08-24T05:30:57;22.42;82.09
68026;SHT31;54819;48.030;14.710;2023-08-24T05:33:25;22.48;82.05
68026;SHT31;54819;48.030;14.710;2023-08-24T05:35:53;22.57;81.92
68026;SHT31;54819;48.030;14.710;2023-08-24T05:38:19;22.64;81.80
68026;SHT31;54819;48.030;14.710;2023-08-24T05:40:46;22.72;81.60
68026;SHT31;54819;48.030;14.710;2023-08-24T05:43:14;22.76;81.55
68026;SHT31;54819;48.030;14.710;2023-08-24T05:45:40;22.80;81.42
68026;SHT31;54819;48.030;14.710;2023-08-24T05:48:10;22.85;81.40
68026;SHT31;54819;48.030;14.710;2023-08-24T05:50:42;22.87;81.41
68026;SHT31;54819;48.030;14.710;2023-08-24T05:53:09;22.90;81.40
68026;SHT31;54819;48.030;14.710;2023-08-24T05:55:36;22.93;81.32
68026;SHT31;54819;48.030;14.710;2023-08-24T05:58:03;22.93;81.60
68026;SHT31;54819;48.030;14.710;2023-08-24T06:00:30;22.92;81.69
68026;SHT31;54819;48.030;14.710;2023-08-24T06:02:57;22.92;81.73
68026;SHT31;54819;48.030;14.710;2023-08-24T06:05:23;22.88;81.79
68026;SHT31;54819;48.030;14.710;2023-08-24T06:07:50;22.87;82.00
68026;SHT31;54819;48.030;14.710;2023-08-24T06:10:17;22.91;82.55
68026;SHT31;54819;48.030;14.710;2023-08-24T06:12:44;22.92;82.44
68026;SHT31;54819;48.030;14.710;2023-08-24T06:15:10;22.90;82.68
68026;SHT31;54819;48.030;14.710;2023-08-24T06:17:39;22.87;82.80
68026;SHT31;54819;48.030;14.710;2023-08-24T06:20:06;22.84;83.04
68026;SHT31;54819;48.030;14.710;2023-08-24T06:22:37;22.85;82.84
68026;SHT31;54819;48.030;14.710;2023-08-24T06:25:03;22.85;82.92
68026;SHT31;54819;48.030;14.710;2023-08-24T06:27:31;22.84;82.90
68026;SHT31;54819;48.030;14.710;2023-08-24T06:29:58;22.85;83.03
68026;SHT31;54819;48.030;14.710;2023-08-24T06:32:24;22.88;82.69
68026;SHT31;54819;48.030;14.710;2023-08-24T06:34:51;22.95;82.64
68026;SHT31;54819;48.030;14.710;2023-08-24T06:37:18;23.00;82.50
68026;SHT31;54819;48.030;14.710;2023-08-24T06:39:45;23.05;82.34
68026;SHT31;54819;48.030;14.710;2023-08-24T06:42:11;23.07;82.09
68026;SHT31;54819;48.030;14.710;2023-08-24T06:44:39;23.05;82.11
68026;SHT31;54819;48.030;14.710;2023-08-24T06:47:06;23.09;82.14
68026;SHT31;54819;48.030;14.710;2023-08-24T06:49:33;23.13;82.02
68026;SHT31;54819;48.030;14.710;2023-08-24T06:51:59;23.16;82.01
68026;SHT31;54819;48.030;14.710;2023-08-24T06:54:27;23.20;81.90
68026;SHT31;54819;48.030;14.710;2023-08-24T06:56:54;23.24;81.88
68026;SHT31;54819;48.030;14.710;2023-08-24T06:59:21;23.32;81.95
68026;SHT31;54819;48.030;14.710;2023-08-24T07:01:48;23.45;81.80
68026;SHT31;54819;48.030;14.710;2023-08-24T07:04:14;23.61;81.70
68026;SHT31;54819;48.030;14.710;2023-08-24T07:06:41;23.76;81.37
68026;SHT31;54819;48.030;14.710;2023-08-24T07:09:09;23.84;80.91
68026;SHT31;54819;48.030;14.710;2023-08-24T07:11:36;23.94;80.73
68026;SHT31;54819;48.030;14.710;2023-08-24T07:14:03;24.04;80.55
68026;SHT31;54819;48.030;14.710;2023-08-24T07:16:30;24.16;80.46
68026;SHT31;54819;48.030;14.710;2023-08-24T07:18:57;24.27;80.07
68026;SHT31;54819;48.030;14.710;2023-08-24T07:21:24;24.39;79.94
68026;SHT31;54819;48.030;14.710;2023-08-24T07:23:50;24.48;79.53
68026;SHT31;54819;48.030;14.710;2023-08-24T07:26:17;24.53;79.44
68026;SHT31;54819;48.030;14.710;2023-08-24T07:28:43;24.61;79.37
68026;SHT31;54819;48.030;14.710;2023-08-24T07:31:10;24.65;79.12
68026;SHT31;54819;48.030;14.710;2023-08-24T07:33:38;24.72;79.25
68026;SHT31;54819;48.030;14.710;2023-08-24T07:36:05;24.88;79.16
68026;SHT31;54819;48.030;14.710;2023-08-24T07:38:32;25.07;78.68
68026;SHT31;54819;48.030;14.710;2023-08-24T07:40:59;25.14;78.36
68026;SHT31;54819;48.030;14.710;2023-08-24T07:43:26;25.26;78.30
68026;SHT31;54819;48.030;14.710;2023-08-24T07:45:53;25.39;78.05
68026;SHT31;54819;48.030;14.710;2023-08-24T07:48:19;25.46;77.84
68026;SHT31;54819;48.030;14.710;2023-08-24T07:50:46;25.54;77.73
68026;SHT31;54819;48.030;14.710;2023-08-24T07:53:12;25.62;77.56
68026;SHT31;54819;48.030;14.710;2023-08-24T07:55:40;25.73;77.52
68026;SHT31;54819;48.030;14.710;2023-08-24T07:58:08;25.82;77.10
68026;SHT31;54819;48.030;14.710;2023-08-24T08:00:35;25.83;76.83
68026;SHT31;54819;48.030;14.710;2023-08-24T08:03:01;25.81;76.69
68026;SHT31;54819;48.030;14.710;2023-08-24T08:05:28;25.83;76.62
68026;SHT31;54819;48.030;14.710;2023-08-24T08:07:55;25.88;76.64
68026;SHT31;54819;48.030;14.710;2023-08-24T08:10:22;25.97;76.27
68026;SHT31;54819;48.030;14.710;2023-08-24T08:12:48;26.01;76.20
68026;SHT31;54819;48.030;14.710;2023-08-24T08:15:15;26.01;76.25
68026;SHT31;54819;48.030;14.710;2023-08-24T08:17:41;26.03;75.80
68026;SHT31;54819;48.030;14.710;2023-08-24T08:20:09;26.13;75.70
68026;SHT31;54819;48.030;14.710;2023-08-24T08:22:36;26.22;75.64
68026;SHT31;54819;48.030;14.710;2023-08-24T08:25:05;26.29;75.59
68026;SHT31;54819;48.030;14.710;2023-08-24T08:27:33;26.33;75.58
68026;SHT31;54819;48.030;14.710;2023-08-24T08:30:00;26.30;75.31
68026;SHT31;54819;48.030;14.710;2023-08-24T08:32:26;26.26;75.20
68026;SHT31;54819;48.030;14.710;2023-08-24T08:34:54;26.26;74.91
68026;SHT31;54819;48.030;14.710;2023-08-24T08:37:23;26.30;75.01
68026;SHT31;54819;48.030;14.710;2023-08-24T08:39:50;26.42;74.94
68026;SHT31;54819;48.030;14.710;2023-08-24T08:42:17;26.50;74.60
68026;SHT31;54819;48.030;14.710;2023-08-24T08:44:45;26.64;74.62
68026;SHT31;54819;48.030;14.710;2023-08-24T08:47:13;26.74;74.39
68026;SHT31;54819;48.030;14.710;2023-08-24T08:49:44;26.68;74.05
68026;SHT31;54819;48.030;14.710;2023-08-24T08:52:14;26.65;74.16
68026;SHT31;54819;48.030;14.710;2023-08-24T08:54:40;26.70;74.13
68026;SHT31;54819;48.030;14.710;2023-08-24T08:57:07;26.70;73.76
68026;SHT31;54819;48.030;14.710;2023-08-24T08:59:34;26.69;73.85
68026;SHT31;54819;48.030;14.710;2023-08-24T09:02:02;26.68;73.86
68026;SHT31;54819;48.030;14.710;2023-08-24T09:04:31;26.71;73.70
68026;SHT31;54819;48.030;14.710;2023-08-24T09:06:59;26.78;73.61
68026;SHT31;54819;48.030;14.710;2023-08-24T09:09:30;26.87;73.66
68026;SHT31;54819;48.030;14.710;2023-08-24T09:11:58;27.00;73.32
68026;SHT31;54819;48.030;14.710;2023-08-24T09:14:25;27.01;72.93
68026;SHT31;54819;48.030;14.710;2023-08-24T09:16:52;27.04;72.69
68026;SHT31;54819;48.030;14.710;2023-08-24T09:19:19;27.10;72.76
68026;SHT31;54819;48.030;14.710;2023-08-24T09:21:58;27.20;72.37
68026;SHT31;54819;48.030;14.710;2023-08-24T09:24:30;27.31;71.90
68026;SHT31;54819;48.030;14.710;2023-08-24T09:26:58;27.39;71.44
68026;SHT31;54819;48.030;14.710;2023-08-24T09:29:25;27.44;71.63
68026;SHT31;54819;48.030;14.710;2023-08-24T09:31:52;27.50;71.27
68026;SHT31;54819;48.030;14.710;2023-08-24T09:34:20;27.54;71.09
68026;SHT31;54819;48.030;14.710;2023-08-24T09:36:47;27.60;70.93
68026;SHT31;54819;48.030;14.710;2023-08-24T09:39:16;27.64;70.81
68026;SHT31;54819;48.030;14.710;2023-08-24T09:41:44;27.74;71.13
68026;SHT31;54819;48.030;14.710;2023-08-24T09:44:13;27.80;70.93
68026;SHT31;54819;48.030;14.710;2023-08-24T09:46:40;27.86;70.60
68026;SHT31;54819;48.030;14.710;2023-08-24T09:49:08;27.94;70.38
68026;SHT31;54819;48.030;14.710;2023-08-24T09:51:36;27.96;70.37
68026;SHT31;54819;48.030;14.710;2023-08-24T09:54:05;28.01;70.12
68026;SHT31;54819;48.030;14.710;2023-08-24T09:56:36;28.08;70.32
68026;SHT31;54819;48.030;14.710;2023-08-24T09:59:10;28.15;70.44
68026;SHT31;54819;48.030;14.710;2023-08-24T10:01:44;28.24;70.48
68026;SHT31;54819;48.030;14.710;2023-08-24T10:04:14;28.34;70.33
68026;SHT31;54819;48.030;14.710;2023-08-24T10:06:44;28.41;69.61
68026;SHT31;54819;48.030;14.710;2023-08-24T10:09:27;28.49;69.19
68026;SHT31;54819;48.030;14.710;2023-08-24T10:11:59;28.53;68.34
68026;SHT31;54819;48.030;14.710;2023-08-24T10:14:32;28.56;67.35
68026;SHT31;54819;48.030;14.710;2023-08-24T10:17:01;28.61;67.78
68026;SHT31;54819;48.030;14.710;2023-08-24T10:19:29;28.66;67.81
68026;SHT31;54819;48.030;14.710;2023-08-24T10:21:57;28.70;67.40
68026;SHT31;54819;48.030;14.710;2023-08-24T10:24:27;28.77;67.53
68026;SHT31;54819;48.030;14.710;2023-08-24T10:26:54;28.88;68.11
68026;SHT31;54819;48.030;14.710;2023-08-24T10:29:23;28.95;67.99
68026;SHT31;54819;48.030;14.710;2023-08-24T10:31:51;28.96;67.69
68026;SHT31;54819;48.030;14.710;2023-08-24T10:34:19;28.99;67.77
68026;SHT31;54819;48.030;14.710;2023-08-24T10:36:47;29.05;67.02
68026;SHT31;54819;48.030;14.710;2023-08-24T10:39:15;29.10;66.01
68026;SHT31;54819;48.030;14.710;2023-08-24T10:41:49;29.08;65.55
68026;SHT31;54819;48.030;14.710;2023-08-24T10:44:21;29.13;65.37
68026;SHT31;54819;48.030;14.710;2023-08-24T10:49:39;29.16;64.59
68026;SHT31;54819;48.030;14.710;2023-08-24T10:52:17;29.19;65.10
68026;SHT31;54819;48.030;14.710;2023-08-24T10:54:46;29.19;64.55
68026;SHT31;54819;48.030;14.710;2023-08-24T10:57:25;29.23;64.63
68026;SHT31;54819;48.030;14.710;2023-08-24T11:00:03;29.28;64.69
68026;SHT31;54819;48.030;14.710;2023-08-24T11:02:48;29.32;64.79
68026;SHT31;54819;48.030;14.710;2023-08-24T11:08:02;29.40;64.52
68026;SHT31;54819;48.030;14.710;2023-08-24T11:13:10;29.58;64.08
68026;SHT31;54819;48.030;14.710;2023-08-24T11:18:12;29.64;62.79
68026;SHT31;54819;48.030;14.710;2023-08-24T11:20:43;29.67;63.07
68026;SHT31;54819;48.030;14.710;2023-08-24T11:23:11;29.72;62.94
68026;SHT31;54819;48.030;14.710;2023-08-24T11:25:38;29.74;62.87
68026;SHT31;54819;48.030;14.710;2023-08-24T11:28:05;29.83;62.48
68026;SHT31;54819;48.030;14.710;2023-08-24T11:30:32;29.92;60.74
68026;SHT31;54819;48.030;14.710;2023-08-24T11:32:59;29.96;60.99
68026;SHT31;54819;48.030;14.710;2023-08-24T11:35:26;30.00;60.79
68026;SHT31;54819;48.030;14.710;2023-08-24T11:37:54;30.03;60.54
68026;SHT31;54819;48.030;14.710;2023-08-24T11:40:24;30.09;60.29
68026;SHT31;54819;48.030;14.710;2023-08-24T11:42:54;30.16;60.57
68026;SHT31;54819;48.030;14.710;2023-08-24T11:45:21;30.25;60.67
68026;SHT31;54819;48.030;14.710;2023-08-24T11:47:49;30.22;60.03
68026;SHT31;54819;48.030;14.710;2023-08-24T11:50:17;30.23;60.09
68026;SHT31;54819;48.030;14.710;2023-08-24T11:52:44;30.33;60.62
68026;SHT31;54819;48.030;14.710;2023-08-24T11:55:11;30.39;59.72
68026;SHT31;54819;48.030;14.710;2023-08-24T11:57:38;30.48;60.27
68026;SHT31;54819;48.030;14.710;2023-08-24T12:00:05;30.57;59.08
68026;SHT31;54819;48.030;14.710;2023-08-24T12:02:33;30.60;58.72
68026;SHT31;54819;48.030;14.710;2023-08-24T12:05:01;30.63;57.38
68026;SHT31;54819;48.030;14.710;2023-08-24T12:07:31;30.64;57.57
68026;SHT31;54819;48.030;14.710;2023-08-24T12:10:01;30.72;57.58
68026;SHT31;54819;48.030;14.710;2023-08-24T12:12:29;30.75;57.03
68026;SHT31;54819;48.030;14.710;2023-08-24T12:14:55;30.74;56.35
68026;SHT31;54819;48.030;14.710;2023-08-24T12:17:25;30.78;56.75
68026;SHT31;54819;48.030;14.710;2023-08-24T12:19:59;30.79;56.42
68026;SHT31;54819;48.030;14.710;2023-08-24T12:22:27;30.84;57.26
68026;SHT31;54819;48.030;14.710;2023-08-24T12:24:55;30.90;57.36
68026;SHT31;54819;48.030;14.710;2023-08-24T12:27:23;30.97;56.76
68026;SHT31;54819;48.030;14.710;2023-08-24T12:29:52;30.98;55.47
68026;SHT31;54819;48.030;14.710;2023-08-24T12:32:20;30.98;56.68
68026;SHT31;54819;48.030;14.710;2023-08-24T12:34:49;31.05;56.14
68026;SHT31;54819;48.030;14.710;2023-08-24T12:37:18;31.02;55.23
68026;SHT31;54819;48.030;14.710;2023-08-24T12:39:44;31.03;55.82
68026;SHT31;54819;48.030;14.710;2023-08-24T12:42:11;31.13;56.51
68026;SHT31;54819;48.030;14.710;2023-08-24T12:44:38;31.14;55.99
68026;SHT31;54819;48.030;14.710;2023-08-24T12:47:04;31.14;55.68
68026;SHT31;54819;48.030;14.710;2023-08-24T12:49:31;31.14;56.44
68026;SHT31;54819;48.030;14.710;2023-08-24T12:51:58;31.18;56.34
68026;SHT31;54819;48.030;14.710;2023-08-24T12:54:24;31.19;55.39
68026;SHT31;54819;48.030;14.710;2023-08-24T12:56:51;31.21;55.60
68026;SHT31;54819;48.030;14.710;2023-08-24T12:59:18;31.27;56.11
68026;SHT31;54819;48.030;14.710;2023-08-24T13:01:45;31.28;55.34
68026;SHT31;54819;48.030;14.710;2023-08-24T13:04:13;31.32;55.67
68026;SHT31;54819;48.030;14.710;2023-08-24T13:06:40;31.35;55.26
68026;SHT31;54819;48.030;14.710;2023-08-24T13:09:07;31.36;54.63
68026;SHT31;54819;48.030;14.710;2023-08-24T13:11:34;31.39;55.21
68026;SHT31;54819;48.030;14.710;2023-08-24T13:14:00;31.35;55.06
68026;SHT31;54819;48.030;14.710;2023-08-24T13:16:27;31.30;54.52
68026;SHT31;54819;48.030;14.710;2023-08-24T13:18:54;31.31;54.57
68026;SHT31;54819;48.030;14.710;2023-08-24T13:21:21;31.38;55.30
68026;SHT31;54819;48.030;14.710;2023-08-24T13:23:49;31.40;54.84
68026;SHT31;54819;48.030;14.710;2023-08-24T13:26:18;31.42;54.93
68026;SHT31;54819;48.030;14.710;2023-08-24T13:28:49;31.38;54.59
68026;SHT31;54819;48.030;14.710;2023-08-24T13:31:16;31.40;54.40
68026;SHT31;54819;48.030;14.710;2023-08-24T13:33:44;31.38;53.78
68026;SHT31;54819;48.030;14.710;2023-08-24T13:36:12;31.38;54.31
68026;SHT31;54819;48.030;14.710;2023-08-24T13:38:38;31.38;54.11
68026;SHT31;54819;48.030;14.710;2023-08-24T13:41:05;31.43;54.61
68026;SHT31;54819;48.030;14.710;2023-08-24T13:43:32;31.50;54.35
68026;SHT31;54819;48.030;14.710;2023-08-24T13:45:58;31.54;54.08
68026;SHT31;54819;48.030;14.710;2023-08-24T13:48:29;31.56;53.77
68026;SHT31;54819;48.030;14.710;2023-08-24T13:50:59;31.58;53.73
68026;SHT31;54819;48.030;14.710;2023-08-24T13:53:26;31.61;53.59
68026;SHT31;54819;48.030;14.710;2023-08-24T13:55:53;31.63;53.65
68026;SHT31;54819;48.030;14.710;2023-08-24T13:58:19;31.65;53.63
68026;SHT31;54819;48.030;14.710;2023-08-24T14:00:46;31.67;53.78
68026;SHT31;54819;48.030;14.710;2023-08-24T14:03:13;31.69;54.06
68026;SHT31;54819;48.030;14.710;2023-08-24T14:05:43;31.61;53.79
68026;SHT31;54819;48.030;14.710;2023-08-24T14:08:10;31.63;53.76
68026;SHT31;54819;48.030;14.710;2023-08-24T14:10:36;31.62;53.55
68026;SHT31;54819;48.030;14.710;2023-08-24T14:13:03;31.55;53.66
68026;SHT31;54819;48.030;14.710;2023-08-24T14:15:30;31.50;53.79
68026;SHT31;54819;48.030;14.710;2023-08-24T14:17:56;31.47;54.09
68026;SHT31;54819;48.030;14.710;2023-08-24T14:20:24;31.49;54.13
68026;SHT31;54819;48.030;14.710;2023-08-24T14:22:51;31.48;54.24
68026;SHT31;54819;48.030;14.710;2023-08-24T14:25:17;31.41;54.00
68026;SHT31;54819;48.030;14.710;2023-08-24T14:27:44;31.42;53.54
68026;SHT31;54819;48.030;14.710;2023-08-24T14:30:28;31.40;53.50
68026;SHT31;54819;48.030;14.710;2023-08-24T14:32:55;31.39;53.47
68026;SHT31;54819;48.030;14.710;2023-08-24T14:35:21;31.39;53.51
68026;SHT31;54819;48.030;14.710;2023-08-24T14:37:48;31.39;53.34
68026;SHT31;54819;48.030;14.710;2023-08-24T14:40:15;31.37;53.36
68026;SHT31;54819;48.030;14.710;2023-08-24T14:42:42;31.35;53.65
68026;SHT31;54819;48.030;14.710;2023-08-24T14:45:09;31.36;53.81
68026;SHT31;54819;48.030;14.710;2023-08-24T14:47:36;31.29;53.32
68026;SHT31;54819;48.030;14.710;2023-08-24T14:50:03;31.23;53.62
68026;SHT31;54819;48.030;14.710;2023-08-24T14:52:30;31.22;53.56
68026;SHT31;54819;48.030;14.710;2023-08-24T14:54:56;31.21;53.59
68026;SHT31;54819;48.030;14.710;2023-08-24T14:57:23;31.22;53.21
68026;SHT31;54819;48.030;14.710;2023-08-24T14:59:50;31.23;53.28
68026;SHT31;54819;48.030;14.710;2023-08-24T15:02:16;31.25;53.20
68026;SHT31;54819;48.030;14.710;2023-08-24T15:04:43;31.23;53.71
68026;SHT31;54819;48.030;14.710;2023-08-24T15:07:10;31.25;54.16
68026;SHT31;54819;48.030;14.710;2023-08-24T15:09:37;31.27;53.81
68026;SHT31;54819;48.030;14.710;2023-08-24T15:12:04;31.25;53.93
68026;SHT31;54819;48.030;14.710;2023-08-24T15:14:31;31.21;54.16
68026;SHT31;54819;48.030;14.710;2023-08-24T15:17:01;31.16;54.08
68026;SHT31;54819;48.030;14.710;2023-08-24T15:19:27;31.12;54.31
68026;SHT31;54819;48.030;14.710;2023-08-24T15:21:54;31.08;54.42
68026;SHT31;54819;48.030;14.710;2023-08-24T15:24:20;31.02;54.76
68026;SHT31;54819;48.030;14.710;2023-08-24T15:26:47;31.01;54.84
68026;SHT31;54819;48.030;14.710;2023-08-24T15:29:16;30.99;54.64
68026;SHT31;54819;48.030;14.710;2023-08-24T15:31:44;30.95;54.87
68026;SHT31;54819;48.030;14.710;2023-08-24T15:34:11;30.93;54.98